Terminal Aerodrome Forecast
Issued by NWS Corpus Christi, TX

Home | Current Version | Previous Version | Text Only | Print | Product List | Glossary On
Versions: 1 2 3 4 5 6 7 8 9 10 11 12
000
FTUS44 KCRP 232329
TAFVCT
TAF
KVCT 232329Z 2400/2424 17015G21KT P6SM FEW050 SCT250
     FM240200 18010KT P6SM SCT250
     FM241000 18005KT P6SM FEW025 BKN150
     FM241500 19013G18KT P6SM FEW030 BKN250
     FM241900 17018G26KT P6SM FEW050 SCT200=

USA.gov is the U.S. government's official web portal to all federal, state and local government web resources and services.